Time;durP1;ratioP1;P1;durP2;ratioP2;P2;SDS_P1;SDS_P2;PMS_P1;PMS_P2;Temp;Humidity;BMP_temperature;BMP_pressure;BME280_temperature;BME280_humidity;BME280_pressure;Samples;Min_cycle;Max_cycle;Signal;HPM_P1;HPM_P2
2022/10/07 00:01:55;;;;;;;11.60;2.80;;;9.90;99.90;;;;;;5117318;27;20030;-80
2022/10/07 00:04:21;;;;;;;9.38;2.40;;;10.00;99.90;;;;;;5146938;27;20027;-80
2022/10/07 00:06:48;;;;;;;9.13;3.08;;;10.00;99.90;;;;;;5113133;27;20042;-81
2022/10/07 00:09:14;;;;;;;9.38;2.60;;;10.00;99.90;;;;;;5117329;27;20034;-81
2022/10/07 00:11:40;;;;;;;10.20;2.83;;;9.90;99.90;;;;;;5125676;27;20532;-81
2022/10/07 00:14:06;;;;;;;11.57;2.72;;;9.90;99.90;;;;;;5110895;27;20070;-81
2022/10/07 00:16:37;;;;;;;8.13;2.60;;;10.00;99.90;;;;;;5130296;27;20050;-81
2022/10/07 00:19:06;;;;;;;8.43;3.15;;;9.90;99.90;;;;;;5149579;27;20035;-80
2022/10/07 00:21:34;;;;;;;6.57;2.95;;;9.90;99.90;;;;;;5125547;27;20567;-80
2022/10/07 00:24:00;;;;;;;8.68;3.00;;;9.90;99.90;;;;;;5127976;27;20047;-80
2022/10/07 00:26:29;;;;;;;11.38;2.85;;;9.90;99.90;;;;;;5136034;27;20035;-80
2022/10/07 00:28:55;;;;;;;5.97;2.63;;;9.90;99.90;;;;;;5146359;27;20390;-80
2022/10/07 00:31:27;;;;;;;10.57;2.80;;;9.90;99.90;;;;;;5136968;27;21325;-81
2022/10/07 00:33:54;;;;;;;8.13;2.75;;;9.90;99.90;;;;;;5157087;27;20027;-80
2022/10/07 00:36:27;;;;;;;9.68;2.60;;;9.90;99.90;;;;;;5145746;27;20035;-81
2022/10/07 00:39:02;;;;;;;8.30;2.53;;;9.80;99.90;;;;;;5146382;27;20035;-80
2022/10/07 00:41:35;;;;;;;8.80;2.42;;;9.80;99.90;;;;;;5131564;27;20080;-80
2022/10/07 00:44:35;;;;;;;11.23;2.70;;;9.80;99.90;;;;;;5123082;27;20039;-80
2022/10/07 00:47:09;;;;;;;9.75;3.47;;;9.80;99.90;;;;;;5133402;27;20090;-81
2022/10/07 00:49:44;;;;;;;7.72;2.80;;;9.80;99.90;;;;;;5156428;27;20049;-80
2022/10/07 00:52:11;;;;;;;8.32;2.50;;;9.70;99.90;;;;;;5138493;27;20479;-81
2022/10/07 00:54:38;;;;;;;11.93;3.08;;;9.90;99.90;;;;;;5132132;27;20062;-80
2022/10/07 00:57:04;;;;;;;11.88;2.92;;;9.70;99.90;;;;;;5134874;27;20482;-80
2022/10/07 00:59:30;;;;;;;10.18;2.95;;;9.70;99.90;;;;;;5138492;27;20080;-80
2022/10/07 01:01:56;;;;;;;10.05;3.25;;;9.70;99.90;;;;;;5100282;27;20555;-80
2022/10/07 01:04:22;;;;;;;10.57;3.20;;;9.70;99.90;;;;;;5097194;27;20117;-81
2022/10/07 01:06:47;;;;;;;11.13;2.92;;;9.70;99.90;;;;;;5116076;27;20588;-81
2022/10/07 01:09:13;;;;;;;8.38;3.00;;;9.70;99.90;;;;;;5120495;27;20391;-81
2022/10/07 01:11:45;;;;;;;8.75;3.63;;;9.70;99.90;;;;;;5137071;27;20639;-81
2022/10/07 01:14:28;;;;;;;7.57;3.00;;;9.70;99.90;;;;;;5135334;27;20044;-80
2022/10/07 01:17:08;;;;;;;12.00;3.10;;;9.70;99.90;;;;;;5153539;27;20495;-81
2022/10/07 01:20:13;;;;;;;8.02;3.15;;;9.60;99.90;;;;;;5132825;27;20030;-82
2022/10/07 01:23:10;;;;;;;10.30;2.90;;;9.60;99.90;;;;;;5133919;27;20050;-80
2022/10/07 01:25:40;;;;;;;8.77;2.60;;;9.60;99.90;;;;;;5130021;27;20035;-80
2022/10/07 01:28:15;;;;;;;12.60;3.20;;;9.50;99.90;;;;;;5148685;27;20042;-81
2022/10/07 01:30:47;;;;;;;8.13;2.80;;;9.60;99.90;;;;;;5137516;27;20034;-80
2022/10/07 01:33:20;;;;;;;9.88;3.00;;;9.50;99.90;;;;;;5138020;27;20045;-80
2022/10/07 01:35:49;;;;;;;13.52;3.05;;;9.60;99.90;;;;;;5127969;27;20461;-80
2022/10/07 01:38:18;;;;;;;10.25;2.88;;;9.50;99.90;;;;;;5137013;27;20041;-80
2022/10/07 01:40:53;;;;;;;12.00;3.20;;;9.80;99.90;;;;;;5139912;27;20055;-81
2022/10/07 01:43:21;;;;;;;13.80;3.42;;;9.50;99.90;;;;;;5138089;27;20026;-79
2022/10/07 01:45:47;;;;;;;15.05;4.00;;;9.50;99.90;;;;;;5137578;27;20030;-80
2022/10/07 01:48:14;;;;;;;9.82;2.67;;;9.50;99.90;;;;;;5128827;27;20047;-80
2022/10/07 01:50:40;;;;;;;10.48;2.60;;;9.50;99.90;;;;;;5116712;27;20042;-80
2022/10/07 01:53:25;;;;;;;11.70;3.30;;;10.10;99.90;;;;;;5147804;27;20071;-80
2022/10/07 01:56:32;;;;;;;15.90;3.35;;;9.50;99.90;;;;;;5130026;27;20046;-81
2022/10/07 01:59:05;;;;;;;9.88;3.13;;;9.50;99.90;;;;;;5129718;27;20046;-80
2022/10/07 02:01:37;;;;;;;11.88;3.00;;;9.50;99.90;;;;;;5151614;27;20030;-81
2022/10/07 02:04:03;;;;;;;13.00;3.30;;;9.40;99.90;;;;;;5140029;27;20118;-80
2022/10/07 02:06:36;;;;;;;13.65;3.50;;;9.40;99.90;;;;;;5153664;27;20043;-80
2022/10/07 02:09:10;;;;;;;18.75;3.30;;;9.40;99.90;;;;;;5133325;27;20118;-80
2022/10/07 02:11:40;;;;;;;14.02;3.72;;;9.40;99.90;;;;;;5134788;27;20378;-80
2022/10/07 02:14:19;;;;;;;14.15;3.15;;;9.30;99.90;;;;;;5131650;27;20030;-80
2022/10/07 02:16:56;;;;;;;8.32;3.00;;;9.40;99.90;;;;;;5137031;27;20037;-80
2022/10/07 02:19:29;;;;;;;8.85;3.30;;;9.40;99.90;;;;;;5153485;27;20516;-80
2022/10/07 02:21:58;;;;;;;10.40;3.50;;;9.30;99.90;;;;;;5127935;27;20039;-80
2022/10/07 02:24:28;;;;;;;10.75;3.17;;;9.30;99.90;;;;;;5119361;27;20054;-80
2022/10/07 02:26:56;;;;;;;6.82;3.20;;;9.30;99.90;;;;;;5129962;27;20419;-80
2022/10/07 02:29:23;;;;;;;10.55;3.10;;;9.30;99.90;;;;;;5155377;27;20091;-80
2022/10/07 02:31:51;;;;;;;13.05;3.03;;;9.20;99.90;;;;;;5120755;27;20074;-81
2022/10/07 02:34:20;;;;;;;9.15;3.40;;;9.20;99.90;;;;;;5136890;27;20031;-80
2022/10/07 02:36:57;;;;;;;12.23;3.63;;;9.20;99.90;;;;;;5154498;27;20045;-81
2022/10/07 02:39:23;;;;;;;9.57;3.58;;;9.20;99.90;;;;;;5134056;27;20042;-80
2022/10/07 02:41:57;;;;;;;12.98;3.65;;;9.10;99.90;;;;;;5149713;27;20030;-81
2022/10/07 02:44:48;;;;;;;11.93;3.75;;;9.10;99.90;;;;;;5136796;27;20070;-80
2022/10/07 02:47:23;;;;;;;11.30;3.38;;;9.10;99.90;;;;;;5152204;27;20407;-80
2022/10/07 02:49:53;;;;;;;12.23;3.90;;;9.10;99.90;;;;;;5138097;27;20570;-80
2022/10/07 02:52:21;;;;;;;11.88;3.55;;;9.30;99.90;;;;;;5128533;27;20045;-80
2022/10/07 02:55:08;;;;;;;14.80;3.78;;;9.00;99.90;;;;;;5106915;27;20397;-80
2022/10/07 02:57:38;;;;;;;9.60;3.53;;;9.00;99.90;;;;;;5148605;27;20415;-80
2022/10/07 03:00:06;;;;;;;11.70;3.47;;;9.00;99.90;;;;;;5126334;27;20399;-81
2022/10/07 03:02:52;;;;;;;8.90;4.30;;;9.00;99.90;;;;;;5120933;27;20042;-80
2022/10/07 03:05:20;;;;;;;12.13;4.00;;;9.00;99.90;;;;;;5133700;27;20438;-80
2022/10/07 03:07:48;;;;;;;13.95;3.85;;;9.00;99.90;;;;;;5137475;27;20103;-80
2022/10/07 03:10:15;;;;;;;13.38;4.18;;;9.00;99.90;;;;;;5148677;27;20038;-80
2022/10/07 03:12:41;;;;;;;13.93;3.90;;;9.00;99.90;;;;;;5134204;27;20092;-80
2022/10/07 03:15:09;;;;;;;13.35;3.55;;;9.00;99.90;;;;;;5114745;27;20043;-80
2022/10/07 03:17:35;;;;;;;14.30;3.80;;;9.00;99.90;;;;;;5144711;27;20139;-81
2022/10/07 03:20:01;;;;;;;14.10;4.75;;;8.90;99.90;;;;;;5118516;27;20073;-80
2022/10/07 03:22:28;;;;;;;11.95;3.72;;;8.90;99.90;;;;;;5137080;27;20167;-80
2022/10/07 03:24:54;;;;;;;14.13;3.70;;;9.30;99.90;;;;;;5118215;27;20042;-80
2022/10/07 03:27:20;;;;;;;14.98;3.58;;;9.30;99.90;;;;;;5118792;27;20485;-80
2022/10/07 03:29:47;;;;;;;13.93;3.50;;;9.00;99.90;;;;;;5154527;27;20038;-80
2022/10/07 03:32:14;;;;;;;12.48;3.83;;;9.00;99.90;;;;;;5114372;27;20038;-80
2022/10/07 03:34:39;;;;;;;12.27;3.70;;;9.00;99.90;;;;;;5115071;27;20038;-80
2022/10/07 03:37:05;;;;;;;13.40;3.53;;;9.00;99.90;;;;;;5110182;27;20047;-80
2022/10/07 03:39:31;;;;;;;9.68;3.42;;;9.00;99.90;;;;;;5117063;27;20115;-81
2022/10/07 03:41:57;;;;;;;15.43;3.95;;;9.00;99.90;;;;;;5148484;27;20153;-80
2022/10/07 03:44:23;;;;;;;17.25;3.50;;;8.90;99.90;;;;;;5118756;27;20073;-80
2022/10/07 03:46:50;;;;;;;11.10;4.45;;;8.90;99.90;;;;;;5127773;27;20038;-80
2022/10/07 03:49:17;;;;;;;14.57;4.18;;;8.90;99.90;;;;;;5150000;27;20039;-80
2022/10/07 03:51:43;;;;;;;13.30;4.10;;;9.00;99.90;;;;;;5128801;27;20535;-80
2022/10/07 03:54:08;;;;;;;17.58;3.92;;;9.00;99.90;;;;;;5130901;27;20039;-81
2022/10/07 03:56:34;;;;;;;15.63;3.80;;;9.20;99.90;;;;;;5114399;27;20066;-81
2022/10/07 03:59:00;;;;;;;10.20;3.90;;;9.00;99.90;;;;;;5136085;27;20558;-80
2022/10/07 04:01:30;;;;;;;12.02;3.42;;;9.00;99.90;;;;;;5112541;27;20039;-80
2022/10/07 04:03:58;;;;;;;12.15;3.60;;;9.20;99.90;;;;;;5136752;27;20047;-81
2022/10/07 04:06:24;;;;;;;19.45;4.10;;;8.90;99.90;;;;;;5149896;27;20084;-80
2022/10/07 04:08:54;;;;;;;14.35;3.72;;;8.90;99.90;;;;;;5134955;27;20034;-80
2022/10/07 04:11:23;;;;;;;14.48;3.58;;;8.90;99.90;;;;;;5116492;27;20100;-80
2022/10/07 04:13:49;;;;;;;17.50;4.32;;;8.90;99.90;;;;;;5114722;27;20038;-80
2022/10/07 04:16:15;;;;;;;17.42;4.00;;;8.90;99.90;;;;;;5133588;27;20581;-80
2022/10/07 04:18:40;;;;;;;14.07;4.03;;;8.90;99.90;;;;;;5131123;27;20034;-80
2022/10/07 04:21:07;;;;;;;17.00;4.60;;;9.10;99.90;;;;;;5097338;27;20054;-80
2022/10/07 04:23:33;;;;;;;15.10;3.58;;;8.90;99.90;;;;;;5131817;27;20034;-81
2022/10/07 04:25:59;;;;;;;16.63;3.58;;;8.90;99.90;;;;;;5114277;27;20368;-81
2022/10/07 04:28:25;;;;;;;9.93;3.65;;;9.00;99.90;;;;;;5127965;27;20126;-80
2022/10/07 04:30:52;;;;;;;19.98;3.70;;;9.00;99.90;;;;;;5120466;27;20451;-80
2022/10/07 04:33:20;;;;;;;17.45;5.00;;;9.00;99.90;;;;;;5099459;27;20038;-80
2022/10/07 04:35:49;;;;;;;13.43;4.13;;;9.00;99.90;;;;;;5127950;27;20054;-80
2022/10/07 04:38:16;;;;;;;18.40;3.50;;;9.00;99.90;;;;;;5117246;27;20037;-80
2022/10/07 04:40:45;;;;;;;18.23;4.18;;;9.00;99.90;;;;;;5130388;27;20038;-81
2022/10/07 04:43:18;;;;;;;14.23;3.63;;;9.00;99.90;;;;;;5131379;27;20035;-80
2022/10/07 04:45:46;;;;;;;12.18;4.10;;;9.00;99.90;;;;;;5130385;27;20491;-80
2022/10/07 04:48:12;;;;;;;15.48;4.25;;;9.00;99.90;;;;;;5124959;27;20094;-81
2022/10/07 04:50:38;;;;;;;16.88;4.18;;;9.00;99.90;;;;;;5119106;27;20098;-80
2022/10/07 04:53:06;;;;;;;14.95;4.30;;;9.00;99.90;;;;;;5118329;27;20043;-81
2022/10/07 04:55:36;;;;;;;17.08;4.57;;;9.00;99.90;;;;;;5099600;27;20054;-81
2022/10/07 04:58:02;;;;;;;13.32;3.95;;;9.00;99.90;;;;;;5132204;27;20050;-81
2022/10/07 05:00:28;;;;;;;18.40;4.97;;;9.00;99.90;;;;;;5118319;27;20027;-81
2022/10/07 05:02:53;;;;;;;14.27;4.60;;;9.00;99.90;;;;;;5134431;27;20114;-81
2022/10/07 05:05:19;;;;;;;16.83;4.72;;;9.00;99.90;;;;;;5117301;27;20118;-81
2022/10/07 05:07:50;;;;;;;17.85;4.70;;;9.00;99.90;;;;;;5101058;27;20038;-81
2022/10/07 05:10:16;;;;;;;15.68;4.82;;;9.00;99.90;;;;;;5132404;27;20099;-81
2022/10/07 05:12:42;;;;;;;13.38;4.50;;;9.00;99.90;;;;;;5152680;27;20509;-81
2022/10/07 05:15:09;;;;;;;20.58;5.28;;;9.00;99.90;;;;;;5153106;27;20043;-81
2022/10/07 05:17:35;;;;;;;19.77;5.10;;;9.00;99.90;;;;;;5115176;28;20032;-81
2022/10/07 05:20:01;;;;;;;15.82;5.10;;;9.20;99.90;;;;;;5131848;27;20538;-80
2022/10/07 05:22:27;;;;;;;18.20;4.63;;;9.00;99.90;;;;;;5124162;27;20031;-80
2022/10/07 05:24:53;;;;;;;14.18;5.05;;;9.00;99.90;;;;;;5098675;28;20253;-80
2022/10/07 05:27:19;;;;;;;20.17;5.68;;;9.00;99.90;;;;;;5133693;27;20138;-80
2022/10/07 05:29:44;;;;;;;21.33;5.82;;;9.00;99.90;;;;;;5105008;27;20038;-79
2022/10/07 05:32:10;;;;;;;17.77;4.85;;;9.00;99.90;;;;;;5104948;27;20054;-79
2022/10/07 05:34:35;;;;;;;24.98;5.38;;;9.60;99.90;;;;;;5122731;27;20027;-79
2022/10/07 05:37:01;;;;;;;17.52;4.82;;;9.00;99.90;;;;;;5116596;27;20486;-80
2022/10/07 05:39:27;;;;;;;14.80;4.90;;;9.80;99.90;;;;;;5119142;27;20022;-80
2022/10/07 05:41:53;;;;;;;17.83;5.60;;;9.10;99.90;;;;;;5118802;27;20093;-80
2022/10/07 05:44:18;;;;;;;12.70;4.43;;;9.00;99.90;;;;;;5121442;27;20118;-81
2022/10/07 05:46:44;;;;;;;16.63;4.70;;;8.90;99.90;;;;;;5120825;27;20023;-83
2022/10/07 05:49:11;;;;;;;20.05;5.97;;;9.00;99.90;;;;;;5139842;27;20035;-82
2022/10/07 05:51:36;;;;;;;11.90;4.38;;;9.00;99.90;;;;;;5102437;27;20053;-81
2022/10/07 05:54:02;;;;;;;14.98;5.00;;;9.00;99.90;;;;;;5131320;27;20035;-80
2022/10/07 05:56:28;;;;;;;15.13;5.05;;;9.00;99.90;;;;;;5113809;27;20077;-79
2022/10/07 05:58:56;;;;;;;17.50;4.95;;;9.00;99.90;;;;;;5135938;27;20466;-80
2022/10/07 06:01:23;;;;;;;18.27;5.07;;;9.20;99.90;;;;;;5127672;27;20036;-81
2022/10/07 06:03:51;;;;;;;16.83;5.30;;;9.00;99.90;;;;;;5130870;27;20027;-80
2022/10/07 06:06:17;;;;;;;17.40;5.03;;;9.00;99.90;;;;;;5119554;27;20451;-80
2022/10/07 06:08:42;;;;;;;27.52;5.38;;;9.10;99.90;;;;;;5115596;27;20027;-81
2022/10/07 06:13:54;;;;;;;;;;;9.10;99.90;;;;;;5150139;27;20047;-80
2022/10/07 06:16:21;;;;;;;18.70;5.10;;;9.10;99.90;;;;;;5133730;27;19915;-80
2022/10/07 06:18:49;;;;;;;15.80;5.07;;;9.10;99.90;;;;;;5137764;27;20038;-78
2022/10/07 06:21:15;;;;;;;14.48;4.25;;;9.10;99.90;;;;;;5154954;27;20046;-80
2022/10/07 06:23:41;;;;;;;18.63;4.63;;;9.30;99.90;;;;;;5137649;27;20543;-80
2022/10/07 06:26:10;;;;;;;18.05;4.63;;;9.40;99.90;;;;;;5092941;27;20437;-79
2022/10/07 06:28:41;;;;;;;20.60;4.65;;;9.10;99.90;;;;;;5118756;27;20401;-81
2022/10/07 06:31:21;;;;;;;20.77;4.38;;;9.20;99.90;;;;;;5132622;27;20176;-80
2022/10/07 06:33:48;;;;;;;17.30;5.55;;;9.20;99.90;;;;;;5140633;27;20030;-81
2022/10/07 06:36:13;;;;;;;15.20;4.30;;;9.20;99.90;;;;;;5155798;27;20047;-81
2022/10/07 06:38:48;;;;;;;12.88;4.57;;;9.20;99.90;;;;;;5112848;27;20664;-81
2022/10/07 06:41:14;;;;;;;16.55;4.93;;;9.30;99.90;;;;;;5128655;27;20031;-80
2022/10/07 06:43:40;;;;;;;16.10;4.35;;;9.30;99.90;;;;;;5130631;27;20128;-78
2022/10/07 06:46:08;;;;;;;15.45;4.30;;;9.40;99.90;;;;;;5134233;27;20163;-79
2022/10/07 06:48:34;;;;;;;16.50;4.55;;;9.40;99.90;;;;;;5153498;27;20041;-80
2022/10/07 06:51:04;;;;;;;17.00;4.75;;;9.50;99.90;;;;;;5117339;27;20052;-80
2022/10/07 06:53:31;;;;;;;16.27;4.38;;;9.60;99.90;;;;;;5130785;27;20573;-80
2022/10/07 06:56:01;;;;;;;13.27;4.05;;;9.60;99.90;;;;;;5136598;27;20057;-80
2022/10/07 06:58:27;;;;;;;18.38;4.32;;;9.90;99.90;;;;;;5130376;27;20095;-80
2022/10/07 07:00:53;;;;;;;18.08;4.53;;;9.80;99.90;;;;;;5102371;27;20041;-80
2022/10/07 07:03:21;;;;;;;15.20;4.60;;;9.80;99.90;;;;;;5118891;27;20043;-80
2022/10/07 07:05:47;;;;;;;19.67;4.65;;;9.90;99.90;;;;;;5104873;27;20081;-82
2022/10/07 07:08:14;;;;;;;14.23;4.50;;;9.90;99.90;;;;;;5152455;27;20477;-80
2022/10/07 07:10:42;;;;;;;15.23;4.53;;;10.00;99.90;;;;;;5138773;27;20362;-80
2022/10/07 07:13:08;;;;;;;12.85;3.88;;;10.00;99.90;;;;;;5148740;27;20039;-79
2022/10/07 07:15:35;;;;;;;15.63;4.38;;;10.10;99.90;;;;;;5125503;27;20035;-80
2022/10/07 07:18:01;;;;;;;20.23;3.70;;;10.10;99.90;;;;;;5126111;27;20043;-80
2022/10/07 07:20:33;;;;;;;14.75;3.80;;;10.20;99.90;;;;;;5135134;27;20041;-80
2022/10/07 07:23:00;;;;;;;13.15;3.60;;;10.20;99.90;;;;;;5153444;27;20042;-80
2022/10/07 07:25:27;;;;;;;14.30;3.85;;;10.30;99.90;;;;;;5120032;27;20474;-81
2022/10/07 07:27:54;;;;;;;15.82;3.88;;;10.30;99.90;;;;;;5138597;27;20035;-79
2022/10/07 07:30:22;;;;;;;17.35;3.90;;;10.40;99.90;;;;;;5134330;27;20030;-80
2022/10/07 07:32:48;;;;;;;18.52;3.60;;;10.60;99.90;;;;;;5122228;27;20114;-80
2022/10/07 07:35:14;;;;;;;14.63;4.25;;;10.40;99.90;;;;;;5119339;27;20043;-81
2022/10/07 07:37:40;;;;;;;16.42;4.05;;;10.50;99.90;;;;;;5116891;27;20035;-80
2022/10/07 07:40:06;;;;;;;14.35;3.75;;;10.50;99.90;;;;;;5145682;27;20035;-80
2022/10/07 07:42:33;;;;;;;19.02;4.65;;;10.60;99.90;;;;;;5111497;27;20102;-80
2022/10/07 07:44:58;;;;;;;17.92;4.47;;;10.60;99.90;;;;;;5134396;27;20080;-79
2022/10/07 07:47:25;;;;;;;15.38;3.50;;;10.60;99.90;;;;;;5126765;27;20042;-80
2022/10/07 07:49:51;;;;;;;19.02;4.18;;;10.70;99.90;;;;;;5105868;27;20039;-80
2022/10/07 07:52:17;;;;;;;14.50;4.18;;;10.80;99.90;;;;;;5112421;27;20045;-81
2022/10/07 07:54:43;;;;;;;14.70;3.33;;;10.80;99.90;;;;;;5117158;27;20126;-80
2022/10/07 07:57:10;;;;;;;17.75;3.83;;;10.80;99.90;;;;;;5151535;27;20530;-80
2022/10/07 07:59:36;;;;;;;15.52;3.20;;;10.90;99.90;;;;;;5127839;27;20034;-80
2022/10/07 08:02:03;;;;;;;12.45;2.95;;;11.00;99.90;;;;;;5119108;27;20122;-80
2022/10/07 08:04:29;;;;;;;13.65;3.20;;;11.00;99.90;;;;;;5118275;27;20425;-80
2022/10/07 08:06:55;;;;;;;14.90;3.70;;;11.10;99.90;;;;;;5142862;27;20035;-80
2022/10/07 08:09:21;;;;;;;14.68;3.70;;;11.00;99.90;;;;;;5129330;27;20453;-80
2022/10/07 08:11:47;;;;;;;13.98;3.50;;;11.10;99.90;;;;;;5115328;27;20050;-81
2022/10/07 08:14:15;;;;;;;12.27;3.35;;;11.40;99.90;;;;;;5146007;27;20140;-81
2022/10/07 08:16:42;;;;;;;19.83;3.90;;;11.30;99.90;;;;;;5140071;27;20042;-81
2022/10/07 08:19:10;;;;;;;15.40;3.30;;;11.30;99.90;;;;;;5136992;27;20043;-80
2022/10/07 08:21:36;;;;;;;11.88;3.63;;;11.30;99.90;;;;;;5143706;27;20159;-81
2022/10/07 08:24:05;;;;;;;13.43;3.00;;;11.30;99.90;;;;;;5133748;27;20091;-81
2022/10/07 08:26:32;;;;;;;12.88;3.28;;;11.40;99.90;;;;;;5128240;27;20035;-80
2022/10/07 08:29:00;;;;;;;12.90;3.17;;;11.50;99.90;;;;;;5133964;27;20241;-80
2022/10/07 08:31:27;;;;;;;18.55;3.88;;;11.60;99.90;;;;;;5124732;27;20505;-79
2022/10/07 08:33:55;;;;;;;15.40;3.00;;;11.70;99.90;;;;;;5160131;27;20398;-81
2022/10/07 08:36:22;;;;;;;15.38;3.65;;;11.70;99.90;;;;;;5132691;27;20571;-81
2022/10/07 08:38:49;;;;;;;16.52;3.58;;;11.80;99.90;;;;;;5111459;27;20095;-79
2022/10/07 08:41:23;;;;;;;13.07;3.10;;;11.80;99.90;;;;;;5133473;27;20035;-80
2022/10/07 08:43:50;;;;;;;13.05;3.25;;;11.80;99.90;;;;;;5127064;27;20105;-82
2022/10/07 08:46:30;;;;;;;13.43;3.22;;;11.90;99.90;;;;;;5116915;27;20049;-82
2022/10/07 08:49:02;;;;;;;15.48;4.13;;;12.10;99.90;;;;;;5145611;27;20047;-82
2022/10/07 08:51:51;;;;;;;14.10;3.78;;;12.10;99.90;;;;;;5137477;27;20034;-80
2022/10/07 08:54:25;;;;;;;13.30;3.05;;;12.10;99.90;;;;;;5157613;27;20143;-81
2022/10/07 08:56:52;;;;;;;16.75;3.25;;;12.20;99.90;;;;;;5133221;27;20384;-80
2022/10/07 08:59:31;;;;;;;11.65;3.78;;;12.20;99.90;;;;;;5114156;28;20043;-82
2022/10/07 09:02:04;;;;;;;13.77;3.50;;;12.30;99.90;;;;;;5131087;27;20045;-83
2022/10/07 09:04:36;;;;;;;14.60;3.35;;;12.40;99.90;;;;;;5136971;27;20115;-83
2022/10/07 09:07:01;;;;;;;14.50;2.80;;;12.50;99.90;;;;;;5136033;27;20577;-82
2022/10/07 09:09:34;;;;;;;17.48;3.03;;;12.60;99.90;;;;;;5156209;27;20070;-83
2022/10/07 09:12:03;;;;;;;19.30;3.20;;;12.70;99.90;;;;;;5135099;27;20060;-82
2022/10/07 09:14:43;;;;;;;17.00;2.80;;;12.90;99.90;;;;;;5139872;27;20102;-81
2022/10/07 09:17:20;;;;;;;11.90;2.40;;;13.00;99.90;;;;;;5135249;27;20045;-81
2022/10/07 09:19:55;;;;;;;20.52;3.67;;;13.10;99.90;;;;;;5155689;27;20042;-81
2022/10/07 09:22:28;;;;;;;13.93;3.03;;;13.70;99.90;;;;;;5141458;27;20081;-80
2022/10/07 09:25:17;;;;;;;18.83;2.60;;;13.50;99.90;;;;;;5153798;27;20099;-84
2022/10/07 09:27:42;;;;;;;12.57;2.60;;;13.70;99.90;;;;;;5158076;27;20076;-86
2022/10/07 09:30:12;;;;;;;11.70;3.03;;;13.80;99.90;;;;;;5140855;27;20034;-86
2022/10/07 09:32:41;;;;;;;12.32;2.45;;;13.90;99.90;;;;;;5122425;27;20035;-84
2022/10/07 09:35:16;;;;;;;13.35;3.67;;;14.00;99.90;;;;;;5148242;27;20056;-84
2022/10/07 09:38:07;;;;;;;17.05;2.63;;;14.10;99.90;;;;;;5140434;27;20035;-81
2022/10/07 09:40:34;;;;;;;11.82;3.28;;;14.20;99.90;;;;;;5130742;27;20039;-79
2022/10/07 09:43:01;;;;;;;12.43;2.47;;;14.20;99.90;;;;;;5150205;27;20043;-78
2022/10/07 09:45:32;;;;;;;19.80;3.22;;;14.30;99.90;;;;;;5135960;27;20417;-81
2022/10/07 09:48:07;;;;;;;14.88;3.28;;;14.40;99.90;;;;;;5129437;27;20043;-78
2022/10/07 09:50:39;;;;;;;16.57;2.80;;;14.40;99.90;;;;;;5144783;27;20043;-80
2022/10/07 09:53:27;;;;;;;12.65;2.65;;;14.50;99.90;;;;;;5148887;27;20043;-80
2022/10/07 09:55:54;;;;;;;17.38;3.15;;;14.50;99.90;;;;;;5132826;27;20055;-80
2022/10/07 09:58:30;;;;;;;15.35;2.42;;;14.60;99.90;;;;;;5115257;27;20046;-80
2022/10/07 10:00:59;;;;;;;12.32;3.08;;;14.70;99.90;;;;;;5116788;27;20675;-84
2022/10/07 10:03:36;;;;;;;15.32;2.85;;;14.70;99.90;;;;;;5129227;27;20035;-82
2022/10/07 10:06:05;;;;;;;12.98;3.35;;;14.80;99.90;;;;;;5134340;27;20046;-81
2022/10/07 10:08:32;;;;;;;20.75;2.83;;;14.90;99.90;;;;;;5155479;27;20042;-81
2022/10/07 10:11:04;;;;;;;15.75;3.65;;;15.00;99.90;;;;;;5139160;27;20487;-80
2022/10/07 10:13:36;;;;;;;17.40;2.58;;;15.10;99.90;;;;;;5162403;27;20056;-81
2022/10/07 10:16:24;;;;;;;13.02;2.28;;;15.30;99.90;;;;;;5139108;27;20035;-81
2022/10/07 10:18:55;;;;;;;11.07;3.05;;;15.40;99.90;;;;;;5150646;27;20051;-81
2022/10/07 10:21:28;;;;;;;10.43;2.60;;;15.40;99.90;;;;;;5153802;27;20039;-80
2022/10/07 10:24:00;;;;;;;13.48;2.97;;;15.50;99.90;;;;;;5141395;27;21323;-82
2022/10/07 10:26:40;;;;;;;12.43;2.83;;;15.50;99.90;;;;;;5149470;27;20034;-78
2022/10/07 10:29:18;;;;;;;14.48;3.17;;;15.60;99.90;;;;;;5147769;27;20058;-78
2022/10/07 10:31:59;;;;;;;12.82;2.83;;;15.50;99.90;;;;;;5144642;27;20039;-78
2022/10/07 10:34:49;;;;;;;18.27;3.45;;;15.60;99.90;;;;;;5129154;27;20091;-79
2022/10/07 10:37:26;;;;;;;20.60;3.25;;;15.50;99.90;;;;;;5135340;27;20045;-80
2022/10/07 10:40:06;;;;;;;15.93;3.55;;;15.60;99.90;;;;;;5139254;27;20115;-78
2022/10/07 10:43:15;;;;;;;15.02;2.92;;;15.70;99.90;;;;;;5127690;27;20043;-78
2022/10/07 10:46:00;;;;;;;13.70;2.90;;;15.80;99.90;;;;;;5095909;27;20436;-78
2022/10/07 10:48:36;;;;;;;16.23;3.55;;;16.00;99.90;;;;;;5128876;27;20091;-78
2022/10/07 10:51:33;;;;;;;14.27;3.05;;;16.00;99.90;;;;;;5134912;27;20057;-78
2022/10/07 10:54:22;;;;;;;11.82;2.72;;;16.10;99.90;;;;;;5132411;27;20038;-77
2022/10/07 10:57:08;;;;;;;14.07;3.00;;;16.10;99.90;;;;;;5127772;27;20054;-77
2022/10/07 10:59:43;;;;;;;18.60;3.83;;;16.00;99.90;;;;;;5125339;27;20057;-77
2022/10/07 11:02:36;;;;;;;15.93;3.72;;;16.00;99.90;;;;;;5146267;27;20062;-78
2022/10/07 11:05:13;;;;;;;14.00;3.80;;;16.00;99.90;;;;;;5153455;27;20490;-79
2022/10/07 11:08:00;;;;;;;16.30;3.67;;;16.00;99.90;;;;;;5148411;27;20039;-78
2022/10/07 11:10:50;;;;;;;18.52;3.00;;;16.00;99.90;;;;;;5132726;27;20531;-78
2022/10/07 11:13:23;;;;;;;17.25;3.67;;;16.00;99.90;;;;;;5143154;27;20415;-78
2022/10/07 11:16:07;;;;;;;16.52;3.38;;;16.00;99.90;;;;;;5143239;27;20038;-78
2022/10/07 11:18:44;;;;;;;16.88;3.72;;;15.90;99.90;;;;;;5144769;27;20030;-79
2022/10/07 11:21:25;;;;;;;15.77;3.10;;;15.90;99.90;;;;;;5133053;27;20031;-78
2022/10/07 11:24:21;;;;;;;13.88;3.03;;;15.90;99.90;;;;;;5137004;27;20486;-78
2022/10/07 11:26:55;;;;;;;12.93;2.83;;;16.00;99.90;;;;;;5129332;27;20046;-78
2022/10/07 11:29:58;;;;;;;14.77;3.00;;;16.00;99.90;;;;;;5149369;27;20034;-78
2022/10/07 11:32:34;;;;;;;13.90;2.72;;;16.20;99.90;;;;;;5149445;27;20038;-78
2022/10/07 11:35:00;;;;;;;;;;;16.20;99.90;;;;;;5150717;27;20047;-78
2022/10/07 11:37:39;;;;;;;10.60;2.97;;;16.40;99.90;;;;;;5130607;27;20047;-78
2022/10/07 11:40:06;;;;;;;9.77;2.85;;;16.50;99.90;;;;;;5139853;27;20071;-78
2022/10/07 11:42:41;;;;;;;13.15;3.00;;;16.60;99.90;;;;;;5149599;27;20034;-78
2022/10/07 11:45:28;;;;;;;14.50;2.60;;;16.60;99.90;;;;;;5142662;27;20035;-78
2022/10/07 11:48:06;;;;;;;11.07;2.67;;;16.70;99.90;;;;;;5130603;27;20095;-78
2022/10/07 11:50:37;;;;;;;11.80;2.00;;;16.70;99.90;;;;;;5147357;27;20065;-78
2022/10/07 11:53:19;;;;;;;10.93;2.38;;;16.70;99.90;;;;;;5163466;27;20506;-79
2022/10/07 11:55:56;;;;;;;11.05;2.10;;;16.80;99.90;;;;;;5121401;27;20096;-78
2022/10/07 11:58:30;;;;;;;9.65;2.55;;;16.80;99.90;;;;;;5134169;27;20043;-78
2022/10/07 12:01:24;;;;;;;10.55;2.22;;;16.90;99.90;;;;;;5133438;27;20039;-78
2022/10/07 12:03:52;;;;;;;8.90;2.40;;;16.80;99.90;;;;;;5125370;27;20108;-78
2022/10/07 12:06:18;;;;;;;8.15;2.10;;;16.90;99.90;;;;;;5144389;27;20035;-78
2022/10/07 12:08:44;;;;;;;9.85;2.20;;;16.90;99.90;;;;;;5129124;27;20088;-78
2022/10/07 12:11:10;;;;;;;8.93;2.00;;;16.90;99.90;;;;;;5124881;27;20035;-78
2022/10/07 12:13:40;;;;;;;9.35;2.20;;;16.90;99.90;;;;;;5147373;27;20482;-78
2022/10/07 12:16:28;;;;;;;12.23;2.40;;;16.90;99.90;;;;;;5149591;27;20034;-78
2022/10/07 12:19:06;;;;;;;12.43;2.22;;;16.90;99.90;;;;;;5125430;27;20490;-77
2022/10/07 12:22:03;;;;;;;12.30;2.63;;;16.90;99.90;;;;;;5122232;27;20556;-78
2022/10/07 12:24:34;;;;;;;12.57;2.22;;;16.90;99.90;;;;;;5138195;27;20027;-78
2022/10/07 12:27:22;;;;;;;9.18;2.20;;;16.90;99.90;;;;;;5141990;27;20402;-79
2022/10/07 12:30:01;;;;;;;6.70;2.22;;;16.90;99.90;;;;;;5145550;27;20049;-78
2022/10/07 12:32:59;;;;;;;7.97;2.50;;;16.80;99.90;;;;;;5141841;27;20030;-78
2022/10/07 12:35:45;;;;;;;8.27;2.28;;;16.90;99.90;;;;;;5146147;27;20042;-78
2022/10/07 12:38:24;;;;;;;11.98;2.60;;;16.90;99.90;;;;;;5142453;27;20143;-78
2022/10/07 12:41:02;;;;;;;12.07;2.15;;;16.90;99.90;;;;;;5127053;28;20035;-78
2022/10/07 12:43:48;;;;;;;10.30;2.22;;;16.90;99.90;;;;;;5122395;27;20039;-77
2022/10/07 12:46:17;;;;;;;8.97;2.20;;;16.90;99.90;;;;;;5145716;27;20043;-78
2022/10/07 12:49:12;;;;;;;9.63;2.90;;;17.00;99.90;;;;;;5146547;27;20365;-78
2022/10/07 12:51:39;;;;;;;10.82;2.50;;;17.00;99.90;;;;;;5151245;27;20514;-78
2022/10/07 12:54:15;;;;;;;9.65;1.88;;;17.10;99.90;;;;;;5132211;27;20155;-77
2022/10/07 12:56:43;;;;;;;7.22;2.00;;;17.10;99.90;;;;;;5130272;27;20085;-78
2022/10/07 12:59:49;;;;;;;9.45;2.35;;;17.20;99.90;;;;;;5145014;27;20047;-78
2022/10/07 13:02:36;;;;;;;9.30;2.30;;;17.20;99.90;;;;;;5143135;27;20490;-78
2022/10/07 13:05:38;;;;;;;10.48;2.03;;;17.20;99.90;;;;;;5131975;27;20035;-78
2022/10/07 13:08:40;;;;;;;11.45;2.45;;;17.10;99.90;;;;;;5153664;27;20057;-82
2022/10/07 13:11:25;;;;;;;8.00;1.80;;;17.10;99.90;;;;;;5138535;27;20034;-82
2022/10/07 13:14:12;;;;;;;8.60;2.92;;;17.10;99.90;;;;;;5135972;27;20835;-82